Data for 07/28/2016

Time Sea-Level Adjusted Pressure Absolute Pressure Temperature Relative Humidity Dew Point   
(mb) (inHg) (mb) (inHg) (C) (F) (%) (C) (F)
00:05 1023 30.21 852 25.16 16.3 61.4 67 10.4 50.7
00:10 1023 30.21 853 25.19 16.5 61.7 67 10.4 50.8
00:15 1024 30.24 853 25.19 16.5 61.8 66 10.2 50.3
00:20 1024 30.24 853 25.19 16.6 61.8 66 10.2 50.3
00:25 1024 30.24 853 25.19 16.5 61.8 61 9.1 48.4
00:30 1024 30.24 853 25.19 17.2 63 57 8.7 47.6
00:35 1024 30.24 853 25.19 17.7 63.8 57 9.1 48.3
00:40 1024 30.24 853 25.19 17.4 63.2 61 9.8 49.6
00:45 1024 30.24 853 25.19 16.6 61.9 67 10.4 50.8
00:50 1024 30.24 853 25.19 16.1 61 71 10.9 51.5
00:55 1023 30.21 853 25.19 15.8 60.4 70 10.3 50.6
01:00 1023 30.21 853 25.19 15.9 60.6 69 10.2 50.3
01:05 1023 30.21 852 25.16 16 60.9 64 9.3 48.7
01:10 1023 30.21 852 25.16 16.4 61.4 62 9.2 48.5
01:15 1023 30.21 852 25.16 16.4 61.4 62 9.1 48.4
01:20 1023 30.21 852 25.16 16.5 61.7 60 8.9 48
01:25 1023 30.21 853 25.19 16.5 61.7 61 9.1 48.4
01:30 1024 30.24 853 25.19 16.3 61.4 63 9.3 48.7
01:35 1024 30.24 853 25.19 16.1 61 63 9.1 48.5
01:40 1024 30.24 853 25.19 16 60.8 63 9.2 48.5
01:45 1024 30.24 853 25.19 16.1 60.9 62 8.9 48.1
01:50 1024 30.24 853 25.19 16.5 61.8 59 8.7 47.6
01:55 1024 30.24 853 25.19 16.8 62.3 58 8.7 47.6
02:00 1024 30.24 853 25.19 16.9 62.4 59 8.9 48.1
02:05 1024 30.24 853 25.19 16.6 61.8 61 9.2 48.5
02:10 1024 30.24 853 25.19 16.3 61.3 61 8.9 48.1
02:15 1024 30.24 853 25.19 16.1 61 63 9.2 48.6
02:20 1024 30.24 853 25.19 16 60.7 64 9.3 48.7
02:25 1024 30.24 853 25.19 15.7 60.3 65 9.3 48.8
02:30 1024 30.24 853 25.19 15.7 60.2 65 9.2 48.6
02:35 1024 30.24 853 25.19 15.7 60.3 67 9.6 49.3
02:40 1024 30.24 853 25.19 15.7 60.2 68 9.8 49.6
02:45 1024 30.24 853 25.19 15.6 60.1 69 9.9 49.9
02:50 1024 30.24 853 25.19 15.6 60.1 69 9.9 49.9
02:55 1024 30.24 853 25.19 15.6 60.1 69 10.1 50.2
03:00 1024 30.24 853 25.19 15.6 60.1 69 10.1 50.1
03:05 1024 30.24 853 25.19 15.7 60.2 69 10 50.1
03:10 1024 30.24 853 25.19 15.9 60.6 67 9.8 49.6
03:15 1024 30.24 853 25.19 15.9 60.7 67 9.9 49.8
03:20 1024 30.24 853 25.19 15.9 60.6 67 9.9 49.8
03:25 1024 30.24 853 25.19 15.9 60.6 68 10 50
03:30 1024 30.24 853 25.19 15.8 60.4 68 10 50
03:35 1024 30.24 853 25.19 15.8 60.5 68 10 50.1
03:40 1024 30.24 853 25.19 15.6 60 70 10.2 50.3
03:45 1024 30.24 853 25.19 15.1 59.2 72 10.2 50.4
03:50 1024 30.24 853 25.19 14.8 58.6 73 10 50
03:55 1024 30.24 853 25.19 14.8 58.6 73 10 50.1
04:00 1024 30.24 853 25.19 14.6 58.2 74 10 50
04:05 1024 30.24 853 25.19 14.4 57.9 75 10 50
04:10 1024 30.24 854 25.22 14.2 57.6 75 10 50
04:15 1024 30.24 854 25.22 14.1 57.5 77 10.2 50.3
04:20 1024 30.24 854 25.22 14.2 57.5 76 10 50
04:25 1024 30.24 854 25.22 14.1 57.3 76 10 50
04:30 1024 30.24 854 25.22 13.9 57 77 9.9 49.8
04:35 1024 30.24 854 25.22 13.8 56.8 77 9.8 49.6
04:40 1024 30.24 854 25.22 13.7 56.7 77 9.8 49.6
04:45 1024 30.24 854 25.22 13.7 56.6 75 9.5 49
04:50 1024 30.24 854 25.22 13.8 56.8 76 9.6 49.2
04:55 1025 30.27 854 25.22 13.7 56.6 77 9.8 49.6
05:00 1025 30.27 854 25.22 13.5 56.2 78 9.7 49.5
05:05 1025 30.27 854 25.22 13.4 56 76 9.3 48.7
05:10 1025 30.27 854 25.22 13.3 56 77 9.4 48.9
05:15 1025 30.27 854 25.22 13.3 56 78 9.5 49.1
05:20 1025 30.27 854 25.22 13.3 56 78 9.5 49.2
05:25 1025 30.27 854 25.22 13.4 56.1 77 9.5 49.2
05:30 1025 30.27 854 25.22 13.6 56.5 76 9.6 49.2
05:35 1025 30.27 854 25.22 13.6 56.5 77 9.7 49.4
05:40 1025 30.27 854 25.22 13.7 56.6 76 9.5 49.1
05:45 1025 30.27 854 25.22 13.8 56.8 75 9.5 49
05:50 1025 30.27 854 25.22 13.8 56.8 74 9.2 48.6
05:55 1025 30.27 854 25.22 13.8 56.9 72 8.9 48
06:00 1025 30.27 854 25.22 13.9 56.9 72 8.9 47.9
06:05 1025 30.27 854 25.22 13.6 56.4 73 8.8 47.8
06:10 1025 30.27 854 25.22 13.4 56.2 71 8.4 47.1
06:15 1025 30.27 854 25.22 13.4 56.2 71 8.2 46.8
06:20 1025 30.27 854 25.22 13.5 56.3 69 8 46.4
06:25 1025 30.27 854 25.22 13.6 56.4 69 8 46.4
06:30 1025 30.27 854 25.22 13.8 56.9 69 8.2 46.7
06:35 1025 30.27 854 25.22 14.4 57.9 65 8 46.4
06:40 1025 30.27 854 25.22 14.6 58.2 65 8.1 46.5
06:45 1025 30.27 854 25.22 14.9 58.7 64 8.1 46.6
06:50 1025 30.27 854 25.22 14.9 58.8 63 7.8 46.1
06:55 1025 30.27 854 25.22 15.3 59.5 62 8 46.4
07:00 1025 30.27 854 25.22 16 60.7 59 7.9 46.3
07:05 1025 30.27 854 25.22 16.6 61.9 58 8.3 47
07:10 1025 30.27 854 25.22 16.4 61.5 59 8.4 47.2
07:15 1025 30.27 854 25.22 16.5 61.7 59 8.5 47.2
07:20 1025 30.27 854 25.22 16.3 61.4 59 8.4 47.1
07:25 1025 30.27 854 25.22 16.4 61.4 62 9.2 48.5
07:30 1025 30.27 854 25.22 16.9 62.5 55 7.9 46.3
07:35 1025 30.27 854 25.22 16.7 62.1 56 7.9 46.3
07:40 1025 30.27 854 25.22 16.9 62.5 55 8 46.5
07:45 1025 30.27 854 25.22 16.9 62.5 58 8.6 47.5
07:50 1025 30.27 854 25.22 17 62.5 55 8 46.4
07:55 1025 30.27 854 25.22 17.4 63.4 52 7.5 45.5
08:00 1025 30.27 854 25.22 17.9 64.2 51 7.9 46.2
08:05 1025 30.27 854 25.22 17.9 64.3 50 7.4 45.3
08:10 1025 30.27 854 25.22 18.4 65.1 49 7.6 45.6
08:15 1025 30.27 854 25.22 18.9 66.1 47 7.5 45.6
08:20 1025 30.27 854 25.22 19.3 66.8 49 8.3 47
08:25 1025 30.27 854 25.22 19.8 67.7 48 8.5 47.3
08:30 1025 30.27 854 25.22 19.8 67.6 48 8.7 47.7
08:35 1025 30.27 854 25.22 20.1 68.2 48 8.9 47.9
08:40 1025 30.27 854 25.22 20.5 68.8 45 8.4 47.1
08:45 1025 30.27 854 25.22 21 69.9 45 8.8 47.9
08:50 1024 30.24 854 25.22 21.2 70.2 45 9.1 48.3
08:55 1024 30.24 854 25.22 20.7 69.3 45 8.5 47.3
09:00 1024 30.24 854 25.22 21 69.8 45 8.9 48
09:05 1024 30.24 854 25.22 21.7 71 45 9.4 48.9
09:10 1024 30.24 854 25.22 21.9 71.4 41 8.3 47
09:15 1024 30.24 854 25.22 21.9 71.4 41 8.2 46.8
09:20 1024 30.24 854 25.22 21.8 71.2 41 8 46.5
09:25 1024 30.24 854 25.22 22.7 72.8 44 10 49.9
09:30 1024 30.24 854 25.22 22.4 72.3 47 10.8 51.5
09:35 1024 30.24 853 25.19 21.9 71.4 45 9.8 49.6
09:40 1024 30.24 853 25.19 22.8 73.1 43 9.9 49.8
09:45 1024 30.24 854 25.22 23.3 73.9 43 10.1 50.2
09:50 1024 30.24 854 25.22 23.1 73.6 42 9.8 49.6
09:55 1024 30.24 854 25.22 23.4 74.2 42 9.8 49.7
10:00 1024 30.24 854 25.22 22.6 72.7 43 9.5 49.1
10:05 1024 30.24 854 25.22 23.2 73.7 43 10.1 50.1
10:10 1024 30.24 854 25.22 23.4 74.1 41 9.8 49.6
10:15 1024 30.24 853 25.19 23.8 74.8 40 9.5 49.1
10:20 1024 30.24 854 25.22 23.2 73.8 39 8.8 47.9
10:25 1024 30.24 854 25.22 23.7 74.7 40 9.5 49.1
10:30 1024 30.24 854 25.22 23.7 74.6 38 8.7 47.7
10:35 1024 30.24 853 25.19 23.6 74.5 37 8.4 47.1
10:40 1024 30.24 853 25.19 24.4 75.9 37 8.9 48.1
10:45 1024 30.24 853 25.19 24.4 76 35 8.3 46.9
10:50 1024 30.24 853 25.19 24.4 75.8 35 8.1 46.6
10:55 1024 30.24 853 25.19 24.6 76.3 34 7.9 46.2
11:00 1024 30.24 853 25.19 24.6 76.2 35 8.2 46.8
11:05 1024 30.24 853 25.19 25 77.1 35 8.8 47.9
11:10 1024 30.24 853 25.19 25.3 77.6 33 8.3 46.9
11:15 1024 30.24 853 25.19 24.6 76.2 32 7.1 44.9
11:20 1024 30.24 853 25.19 24.7 76.4 32 6.9 44.4
11:25 1024 30.24 853 25.19 24.3 75.8 34 7.7 45.9
11:30 1024 30.24 853 25.19 24.6 76.3 32 7.1 44.8
11:35 1024 30.24 853 25.19 25.4 77.7 31 7.3 45.1
11:40 1024 30.24 853 25.19 26 78.9 30 7.4 45.3
11:45 1024 30.24 853 25.19 25.9 78.6 31 7.8 46.1
11:50 1024 30.24 853 25.19 25.9 78.6 31 7.9 46.3
11:55 1024 30.24 853 25.19 26.2 79.2 31 8 46.4
12:00 1024 30.24 853 25.19 27.3 81.2 27 7.2 45
12:05 1024 30.24 853 25.19 27.5 81.6 26 6.7 44.1
12:10 1024 30.24 853 25.19 26.9 80.5 27 6.6 44
12:15 1024 30.24 853 25.19 26.7 80.1 29 7.4 45.2
12:20 1024 30.24 853 25.19 27.4 81.3 27 6.7 44.1
12:25 1024 30.24 853 25.19 27.1 80.8 28 7.5 45.5
12:30 1024 30.24 853 25.19 27.3 81.2 27 6.9 44.4
12:35 1023 30.21 853 25.19 27.7 81.8 27 7 44.7
12:40 1023 30.21 853 25.19 27.9 82.1 26 7.1 44.8
12:45 1023 30.21 853 25.19 27.3 81.2 25 5.7 42.2
12:50 1023 30.21 853 25.19 27.1 80.7 26 6.1 43
12:55 1023 30.21 853 25.19 28.1 82.6 25 6.4 43.6
13:00 1023 30.21 853 25.19 28.2 82.7 26 7.1 44.8
13:05 1023 30.21 853 25.19 28 82.4 24 5.6 42.1
13:10 1023 30.21 852 25.16 28.5 83.3 25 6.7 44
13:15 1023 30.21 852 25.16 27.8 82 26 7 44.7
13:20 1023 30.21 852 25.16 28.2 82.8 24 6 42.7
13:25 1023 30.21 852 25.16 28.3 83 24 6.3 43.3
13:30 1023 30.21 852 25.16 28 82.4 23 5.5 41.9
13:35 1023 30.21 852 25.16 27.7 81.8 22 4.6 40.3
13:40 1023 30.21 852 25.16 27.9 82.3 22 4.4 39.9
13:45 1023 30.21 852 25.16 28.6 83.4 21 4.1 39.4
13:50 1023 30.21 852 25.16 28.6 83.5 20 4.1 39.3
13:55 1023 30.21 852 25.16 28.6 83.4 22 5 41.1
14:00 1023 30.21 852 25.16 27.7 81.9 22 4.6 40.3
14:05 1023 30.21 852 25.16 27.5 81.5 23 4.9 40.8
14:10 1023 30.21 852 25.16 28.7 83.7 21 4.6 40.3
14:15 1023 30.21 852 25.16 29.1 84.5 21 4.7 40.4
14:20 1023 30.21 852 25.16 28.6 83.5 21 4.6 40.2
14:25 1023 30.21 852 25.16 28.8 83.8 20 4.1 39.4
14:30 1023 30.21 852 25.16 28.7 83.7 20 4.1 39.3
14:35 1023 30.21 852 25.16 28.9 84 20 4 39.2
14:40 1023 30.21 852 25.16 29.2 84.5 20 4.5 40.1
14:45 1023 30.21 852 25.16 29.1 84.4 21 5.1 41.3
14:50 1023 30.21 852 25.16 29 84.2 21 4.9 40.7
14:55 1023 30.21 852 25.16 28.6 83.4 22 4.8 40.7
15:00 1023 30.21 852 25.16 28.5 83.3 21 4.5 40.1
15:05 1022 30.18 852 25.16 28.5 83.3 22 4.9 40.8
15:10 1022 30.18 852 25.16 28.7 83.6 20 4.1 39.3
15:15 1022 30.18 852 25.16 28.6 83.4 19 2.8 37
15:20 1022 30.18 852 25.16 28.8 83.8 18 2.4 36.3
15:25 1022 30.18 852 25.16 29.2 84.6 18 2.9 37.2
15:30 1022 30.18 851 25.13 29.3 84.7 15 0.3 32.6
15:35 1022 30.18 851 25.13 29.6 85.2 18 2.7 36.8
15:40 1022 30.18 851 25.13 29.5 85.1 15 0.4 32.6
15:45 1022 30.18 851 25.13 28.4 83.1 17 1.7 35
15:50 1022 30.18 851 25.13 28.7 83.7 17 1.3 34.4
15:55 1022 30.18 851 25.13 28.9 84 16 0.6 33.2
16:00 1022 30.18 851 25.13 29 84.1 15 -0.2 31.6
16:05 1022 30.18 851 25.13 28.9 84 15 -0.2 31.7
16:10 1022 30.18 851 25.13 28.7 83.6 15 0.2 32.4
16:15 1022 30.18 851 25.13 28.5 83.3 15 -0.1 31.8
16:20 1022 30.18 851 25.13 29.1 84.4 16 0.9 33.6
16:25 1022 30.18 851 25.13 28 82.4 18 2 35.6
16:30 1022 30.18 851 25.13 28.3 83 17 1.4 34.6
16:35 1022 30.18 851 25.13 28.7 83.7 17 1.8 35.2
16:40 1022 30.18 851 25.13 28.4 83.2 18 2.5 36.5
16:45 1022 30.18 851 25.13 28.1 82.7 18 1.9 35.4
16:50 1022 30.18 851 25.13 28.7 83.6 18 2.2 35.9
16:55 1022 30.18 851 25.13 28.1 82.6 18 2.2 35.9
17:00 1022 30.18 851 25.13 27.8 82 18 1.6 34.9
17:05 1022 30.18 851 25.13 27.6 81.7 19 2.4 36.2
17:10 1022 30.18 851 25.13 27.4 81.4 19 2.2 35.9
17:15 1022 30.18 851 25.13 28 82.4 18 1.8 35.2
17:20 1022 30.18 851 25.13 28.3 83 17 1.6 34.8
17:25 1022 30.18 851 25.13 29 84.2 17 2 35.6
17:30 1022 30.18 851 25.13 29.1 84.4 18 2.9 37.2
17:35 1022 30.18 851 25.13 28 82.3 19 2.9 37.2
17:40 1022 30.18 851 25.13 27.7 81.8 20 3 37.4
17:45 1022 30.18 851 25.13 27.6 81.6 21 3.5 38.3
17:50 1022 30.18 851 25.13 27.6 81.7 24 5.4 41.8
17:55 1022 30.18 851 25.13 27.1 80.8 26 6 42.9
18:00 1021 30.15 851 25.13 26.7 80.1 26 6.1 43
18:05 1021 30.15 851 25.13 26.1 79 30 7.5 45.5
18:10 1022 30.18 851 25.13 25.4 77.8 32 7.9 46.2
18:15 1022 30.18 851 25.13 24.9 76.9 33 7.7 45.9
18:20 1022 30.18 851 25.13 24.7 76.5 34 7.9 46.2
18:25 1022 30.18 851 25.13 24.4 76 34 7.9 46.2
18:30 1022 30.18 851 25.13 24.2 75.5 35 8.1 46.5
18:35 1022 30.18 851 25.13 24 75.2 35 8 46.4
18:40 1022 30.18 851 25.13 23.9 74.9 35 7.8 46.1
18:45 1022 30.18 851 25.13 23.7 74.7 36 7.9 46.3
18:50 1022 30.18 851 25.13 23.6 74.6 37 8.1 46.6
18:55 1022 30.18 851 25.13 23.5 74.3 38 8.5 47.4
19:00 1022 30.18 851 25.13 23.3 73.9 39 8.6 47.5
19:05 1022 30.18 851 25.13 23.2 73.7 39 8.8 47.8
19:10 1022 30.18 851 25.13 23 73.4 40 8.9 48
19:15 1022 30.18 851 25.13 22.8 73.1 41 9.2 48.5
19:20 1022 30.18 851 25.13 22.6 72.7 42 9.2 48.6
19:25 1022 30.18 851 25.13 22.4 72.3 43 9.5 49.1
19:30 1022 30.18 851 25.13 22.2 71.9 44 9.6 49.2
19:35 1022 30.18 851 25.13 22.1 71.8 44 9.6 49.2
19:40 1022 30.18 851 25.13 22 71.5 45 9.7 49.4
19:45 1022 30.18 851 25.13 21.8 71.2 45 9.6 49.3
19:50 1022 30.18 851 25.13 21.7 71 46 9.7 49.4
19:55 1022 30.18 851 25.13 21.6 70.8 46 9.6 49.2
20:00 1022 30.18 851 25.13 21.5 70.7 46 9.7 49.5
20:05 1022 30.18 851 25.13 21.3 70.3 47 9.7 49.5
20:10 1022 30.18 851 25.13 21.1 70.1 47 9.7 49.5
20:15 1022 30.18 851 25.13 21.1 69.9 48 9.8 49.6
20:20 1022 30.18 851 25.13 20.9 69.6 48 9.6 49.4
20:25 1022 30.18 851 25.13 20.8 69.5 49 9.7 49.5
20:30 1022 30.18 851 25.13 20.7 69.2 49 9.7 49.5
20:35 1022 30.18 851 25.13 20.5 69 50 9.8 49.6
20:40 1022 30.18 851 25.13 20.4 68.7 50 9.7 49.5
20:45 1022 30.18 851 25.13 20.4 68.7 49 9.5 49.2
20:50 1022 30.18 851 25.13 20.4 68.6 50 9.6 49.3
20:55 1022 30.18 851 25.13 20.4 68.6 49 9.5 49.1
21:00 1022 30.18 851 25.13 20.3 68.6 49 9.5 49.1
21:05 1022 30.18 851 25.13 20.2 68.4 50 9.5 49.1
21:10 1022 30.18 851 25.13 20.2 68.3 50 9.4 48.9
21:15 1022 30.18 851 25.13 20.1 68.2 50 9.4 49
21:20 1022 30.18 851 25.13 20.1 68.1 49 9.2 48.6
21:25 1022 30.18 851 25.13 20.1 68.1 49 9.2 48.5
21:30 1022 30.18 851 25.13 20.1 68.2 48 9 48.1
21:35 1022 30.18 851 25.13 20.2 68.3 48 9 48.1
21:40 1022 30.18 851 25.13 20.2 68.3 47 8.7 47.6
21:45 1022 30.18 851 25.13 20.3 68.5 47 8.7 47.7
21:50 1022 30.18 851 25.13 20.3 68.5 47 8.6 47.6
21:55 1022 30.18 851 25.13 20.3 68.5 47 8.7 47.7
22:00 1022 30.18 851 25.13 20.2 68.4 47 8.7 47.6
22:05 1022 30.18 851 25.13 20.1 68.2 47 8.7 47.7
22:10 1022 30.18 851 25.13 20 68.1 47 8.7 47.6
22:15 1022 30.18 851 25.13 20 68 47 8.6 47.5
22:20 1022 30.18 851 25.13 20.1 68.1 47 8.6 47.4
22:25 1022 30.18 851 25.13 19.9 67.9 47 8.5 47.4
22:30 1022 30.18 851 25.13 19.9 67.9 47 8.4 47.2
22:35 1022 30.18 851 25.13 20.1 68.1 47 8.5 47.2
22:40 1022 30.18 851 25.13 20 68 47 8.5 47.2
22:45 1022 30.18 851 25.13 19.9 67.8 47 8.5 47.3
22:50 1022 30.18 851 25.13 19.8 67.6 48 8.6 47.4
22:55 1022 30.18 851 25.13 19.6 67.4 48 8.5 47.3
23:00 1022 30.18 851 25.13 19.6 67.3 48 8.5 47.3
23:05 1022 30.18 851 25.13 19.6 67.2 48 8.5 47.3
23:10 1022 30.18 851 25.13 19.6 67.2 48 8.3 47
23:15 1022 30.18 851 25.13 19.6 67.3 48 8.3 47
23:20 1022 30.18 851 25.13 19.6 67.2 48 8.3 47
23:25 1022 30.18 851 25.13 19.5 67.1 48 8.3 46.9
23:30 1022 30.18 851 25.13 19.5 67 48 8.3 46.9
23:35 1022 30.18 851 25.13 19.5 67.1 47 8.1 46.7
23:40 1022 30.18 851 25.13 19.6 67.2 47 8 46.5
23:45 1022 30.18 851 25.13 19.6 67.2 47 8.2 46.7
23:50 1022 30.18 851 25.13 19.5 67 48 8.2 46.8
23:55 1022 30.18 851 25.13 19.4 66.8 48 8.2 46.8
24:00 1022 30.18 851 25.13 19.3 66.7 48 8.2 46.8